sensor_id;sensor_type;location;lat;lon;timestamp;temperature;humidity
86268;DHT22;76928;48.002;8.130;2024-03-02T00:01:31;23.60;51.70
86268;DHT22;76928;48.002;8.130;2024-03-02T00:03:57;23.60;51.70
86268;DHT22;76928;48.002;8.130;2024-03-02T00:06:24;23.60;51.80
86268;DHT22;76928;48.002;8.130;2024-03-02T00:08:51;23.60;51.60
86268;DHT22;76928;48.002;8.130;2024-03-02T00:11:18;23.60;51.50
86268;DHT22;76928;48.002;8.130;2024-03-02T00:13:45;23.60;51.40
86268;DHT22;76928;48.002;8.130;2024-03-02T00:16:12;23.60;51.20
86268;DHT22;76928;48.002;8.130;2024-03-02T00:18:39;23.60;51.30
86268;DHT22;76928;48.002;8.130;2024-03-02T00:21:07;23.60;51.40
86268;DHT22;76928;48.002;8.130;2024-03-02T00:23:40;23.50;51.50
86268;DHT22;76928;48.002;8.130;2024-03-02T00:26:06;23.50;51.70
86268;DHT22;76928;48.002;8.130;2024-03-02T00:28:36;23.50;51.70
86268;DHT22;76928;48.002;8.130;2024-03-02T00:33:42;23.40;51.90
86268;DHT22;76928;48.002;8.130;2024-03-02T00:36:22;23.40;51.90
86268;DHT22;76928;48.002;8.130;2024-03-02T00:38:52;23.40;51.80
86268;DHT22;76928;48.002;8.130;2024-03-02T00:41:24;23.40;51.50
86268;DHT22;76928;48.002;8.130;2024-03-02T00:44:14;23.40;51.80
86268;DHT22;76928;48.002;8.130;2024-03-02T00:46:42;23.30;51.80
86268;DHT22;76928;48.002;8.130;2024-03-02T00:51:52;23.30;51.50
86268;DHT22;76928;48.002;8.130;2024-03-02T00:54:25;23.40;51.50
86268;DHT22;76928;48.002;8.130;2024-03-02T00:56:53;23.30;51.50
86268;DHT22;76928;48.002;8.130;2024-03-02T00:59:22;23.30;51.40
86268;DHT22;76928;48.002;8.130;2024-03-02T01:01:49;23.30;51.40
86268;DHT22;76928;48.002;8.130;2024-03-02T01:04:17;23.20;51.50
86268;DHT22;76928;48.002;8.130;2024-03-02T01:06:43;23.20;51.50
86268;DHT22;76928;48.002;8.130;2024-03-02T01:09:10;23.20;51.30
86268;DHT22;76928;48.002;8.130;2024-03-02T01:11:38;23.20;51.10
86268;DHT22;76928;48.002;8.130;2024-03-02T01:14:05;23.20;51.10
86268;DHT22;76928;48.002;8.130;2024-03-02T01:16:32;23.20;51.10
86268;DHT22;76928;48.002;8.130;2024-03-02T01:18:59;23.20;51.10
86268;DHT22;76928;48.002;8.130;2024-03-02T01:21:26;23.10;51.00
86268;DHT22;76928;48.002;8.130;2024-03-02T01:23:53;23.10;51.10
86268;DHT22;76928;48.002;8.130;2024-03-02T01:26:19;23.10;51.40
86268;DHT22;76928;48.002;8.130;2024-03-02T01:28:46;23.00;51.40
86268;DHT22;76928;48.002;8.130;2024-03-02T01:31:13;23.00;51.30
86268;DHT22;76928;48.002;8.130;2024-03-02T01:33:40;23.00;51.30
86268;DHT22;76928;48.002;8.130;2024-03-02T01:36:07;22.90;51.50
86268;DHT22;76928;48.002;8.130;2024-03-02T01:38:34;22.90;51.50
86268;DHT22;76928;48.002;8.130;2024-03-02T01:41:02;22.90;51.50
86268;DHT22;76928;48.002;8.130;2024-03-02T01:43:28;22.90;51.30
86268;DHT22;76928;48.002;8.130;2024-03-02T01:45:55;22.80;51.40
86268;DHT22;76928;48.002;8.130;2024-03-02T01:48:23;22.80;51.40
86268;DHT22;76928;48.002;8.130;2024-03-02T01:50:49;22.80;51.20
86268;DHT22;76928;48.002;8.130;2024-03-02T01:53:16;22.80;50.60
86268;DHT22;76928;48.002;8.130;2024-03-02T01:55:43;22.80;50.90
86268;DHT22;76928;48.002;8.130;2024-03-02T01:58:10;22.80;50.90
86268;DHT22;76928;48.002;8.130;2024-03-02T02:00:37;22.80;50.80
86268;DHT22;76928;48.002;8.130;2024-03-02T02:03:04;22.80;50.90
86268;DHT22;76928;48.002;8.130;2024-03-02T02:05:31;22.80;50.70
86268;DHT22;76928;48.002;8.130;2024-03-02T02:07:58;22.80;50.80
86268;DHT22;76928;48.002;8.130;2024-03-02T02:10:24;22.70;50.80
86268;DHT22;76928;48.002;8.130;2024-03-02T02:13:11;22.70;50.90
86268;DHT22;76928;48.002;8.130;2024-03-02T02:15:38;22.70;50.70
86268;DHT22;76928;48.002;8.130;2024-03-02T02:18:04;22.70;50.40
86268;DHT22;76928;48.002;8.130;2024-03-02T02:20:31;22.70;50.30
86268;DHT22;76928;48.002;8.130;2024-03-02T02:23:03;22.70;50.30
86268;DHT22;76928;48.002;8.130;2024-03-02T02:25:31;22.70;50.10
86268;DHT22;76928;48.002;8.130;2024-03-02T02:27:58;22.70;49.60
86268;DHT22;76928;48.002;8.130;2024-03-02T02:30:30;22.70;49.80
86268;DHT22;76928;48.002;8.130;2024-03-02T02:32:57;22.60;49.70
86268;DHT22;76928;48.002;8.130;2024-03-02T02:35:24;22.60;49.70
86268;DHT22;76928;48.002;8.130;2024-03-02T02:37:53;22.60;49.70
86268;DHT22;76928;48.002;8.130;2024-03-02T02:40:21;22.60;49.80
86268;DHT22;76928;48.002;8.130;2024-03-02T02:42:48;22.60;49.80
86268;DHT22;76928;48.002;8.130;2024-03-02T02:45:15;22.60;49.70
86268;DHT22;76928;48.002;8.130;2024-03-02T02:47:42;22.50;49.60
86268;DHT22;76928;48.002;8.130;2024-03-02T02:50:10;22.50;49.60
86268;DHT22;76928;48.002;8.130;2024-03-02T02:52:39;22.50;49.60
86268;DHT22;76928;48.002;8.130;2024-03-02T02:55:08;22.50;49.30
86268;DHT22;76928;48.002;8.130;2024-03-02T02:57:40;22.50;49.10
86268;DHT22;76928;48.002;8.130;2024-03-02T03:00:10;22.50;49.00
86268;DHT22;76928;48.002;8.130;2024-03-02T03:02:41;22.50;49.10
86268;DHT22;76928;48.002;8.130;2024-03-02T03:05:13;22.50;49.00
86268;DHT22;76928;48.002;8.130;2024-03-02T03:07:41;22.50;48.90
86268;DHT22;76928;48.002;8.130;2024-03-02T03:10:08;22.50;48.80
86268;DHT22;76928;48.002;8.130;2024-03-02T03:12:35;22.50;48.60
86268;DHT22;76928;48.002;8.130;2024-03-02T03:15:03;22.50;48.60
86268;DHT22;76928;48.002;8.130;2024-03-02T03:17:31;22.40;48.60
86268;DHT22;76928;48.002;8.130;2024-03-02T03:19:57;22.40;48.70
86268;DHT22;76928;48.002;8.130;2024-03-02T03:22:24;22.40;48.50
86268;DHT22;76928;48.002;8.130;2024-03-02T03:24:51;22.40;48.40
86268;DHT22;76928;48.002;8.130;2024-03-02T03:27:17;22.30;48.40
86268;DHT22;76928;48.002;8.130;2024-03-02T03:29:46;22.40;48.30
86268;DHT22;76928;48.002;8.130;2024-03-02T03:32:12;22.30;48.20
86268;DHT22;76928;48.002;8.130;2024-03-02T03:34:39;22.30;48.00
86268;DHT22;76928;48.002;8.130;2024-03-02T03:37:06;22.40;48.10
86268;DHT22;76928;48.002;8.130;2024-03-02T03:39:34;22.30;48.00
86268;DHT22;76928;48.002;8.130;2024-03-02T03:42:02;22.30;48.00
86268;DHT22;76928;48.002;8.130;2024-03-02T03:44:29;22.30;48.00
86268;DHT22;76928;48.002;8.130;2024-03-02T03:46:56;22.30;48.00
86268;DHT22;76928;48.002;8.130;2024-03-02T03:49:23;22.30;47.90
86268;DHT22;76928;48.002;8.130;2024-03-02T03:51:49;22.30;47.80
86268;DHT22;76928;48.002;8.130;2024-03-02T03:54:16;22.30;47.50
86268;DHT22;76928;48.002;8.130;2024-03-02T03:56:43;22.30;47.50
86268;DHT22;76928;48.002;8.130;2024-03-02T03:59:10;22.30;47.50
86268;DHT22;76928;48.002;8.130;2024-03-02T04:01:37;22.20;47.50
86268;DHT22;76928;48.002;8.130;2024-03-02T04:04:04;22.20;47.50
86268;DHT22;76928;48.002;8.130;2024-03-02T04:06:31;22.20;47.50
86268;DHT22;76928;48.002;8.130;2024-03-02T04:08:58;22.20;47.40
86268;DHT22;76928;48.002;8.130;2024-03-02T04:11:25;22.20;47.40
86268;DHT22;76928;48.002;8.130;2024-03-02T04:13:51;22.20;47.20
86268;DHT22;76928;48.002;8.130;2024-03-02T04:16:18;22.20;47.10
86268;DHT22;76928;48.002;8.130;2024-03-02T04:18:45;22.20;47.10
86268;DHT22;76928;48.002;8.130;2024-03-02T04:21:12;22.20;47.20
86268;DHT22;76928;48.002;8.130;2024-03-02T04:23:38;22.20;47.20
86268;DHT22;76928;48.002;8.130;2024-03-02T04:26:05;22.10;47.20
86268;DHT22;76928;48.002;8.130;2024-03-02T04:28:32;22.20;46.90
86268;DHT22;76928;48.002;8.130;2024-03-02T04:30:59;22.20;46.90
86268;DHT22;76928;48.002;8.130;2024-03-02T04:33:26;22.10;46.80
86268;DHT22;76928;48.002;8.130;2024-03-02T04:35:52;22.10;46.80
86268;DHT22;76928;48.002;8.130;2024-03-02T04:38:19;22.10;46.80
86268;DHT22;76928;48.002;8.130;2024-03-02T04:40:46;22.10;46.90
86268;DHT22;76928;48.002;8.130;2024-03-02T04:43:12;22.10;46.90
86268;DHT22;76928;48.002;8.130;2024-03-02T04:45:42;22.10;46.80
86268;DHT22;76928;48.002;8.130;2024-03-02T04:48:09;22.10;46.70
86268;DHT22;76928;48.002;8.130;2024-03-02T04:50:36;22.10;46.70
86268;DHT22;76928;48.002;8.130;2024-03-02T04:53:03;22.10;46.50
86268;DHT22;76928;48.002;8.130;2024-03-02T04:55:29;22.10;46.50
86268;DHT22;76928;48.002;8.130;2024-03-02T04:58:05;22.10;46.60
86268;DHT22;76928;48.002;8.130;2024-03-02T05:00:34;22.10;46.60
86268;DHT22;76928;48.002;8.130;2024-03-02T05:03:02;22.00;46.50
86268;DHT22;76928;48.002;8.130;2024-03-02T05:05:29;22.10;46.20
86268;DHT22;76928;48.002;8.130;2024-03-02T05:07:56;22.10;45.90
86268;DHT22;76928;48.002;8.130;2024-03-02T05:10:23;22.10;45.80
86268;DHT22;76928;48.002;8.130;2024-03-02T05:12:50;22.10;45.70
86268;DHT22;76928;48.002;8.130;2024-03-02T05:15:23;22.00;45.70
86268;DHT22;76928;48.002;8.130;2024-03-02T05:17:49;22.00;45.80
86268;DHT22;76928;48.002;8.130;2024-03-02T05:20:16;22.00;45.80
86268;DHT22;76928;48.002;8.130;2024-03-02T05:22:43;22.00;45.80
86268;DHT22;76928;48.002;8.130;2024-03-02T05:25:10;22.00;45.90
86268;DHT22;76928;48.002;8.130;2024-03-02T05:27:37;21.90;45.50
86268;DHT22;76928;48.002;8.130;2024-03-02T05:30:04;22.00;45.40
86268;DHT22;76928;48.002;8.130;2024-03-02T05:32:33;22.00;45.40
86268;DHT22;76928;48.002;8.130;2024-03-02T05:35:00;22.00;45.40
86268;DHT22;76928;48.002;8.130;2024-03-02T05:37:27;22.00;45.90
86268;DHT22;76928;48.002;8.130;2024-03-02T05:39:54;22.00;46.10
86268;DHT22;76928;48.002;8.130;2024-03-02T05:42:21;22.00;45.90
86268;DHT22;76928;48.002;8.130;2024-03-02T05:44:48;22.00;45.80
86268;DHT22;76928;48.002;8.130;2024-03-02T05:47:14;22.00;45.80
86268;DHT22;76928;48.002;8.130;2024-03-02T05:49:41;22.00;45.50
86268;DHT22;76928;48.002;8.130;2024-03-02T05:52:09;21.90;45.50
86268;DHT22;76928;48.002;8.130;2024-03-02T05:54:37;21.90;45.90
86268;DHT22;76928;48.002;8.130;2024-03-02T05:57:03;21.90;46.10
86268;DHT22;76928;48.002;8.130;2024-03-02T05:59:43;22.00;46.20
86268;DHT22;76928;48.002;8.130;2024-03-02T06:02:10;22.00;46.20
86268;DHT22;76928;48.002;8.130;2024-03-02T06:04:37;22.00;46.20
86268;DHT22;76928;48.002;8.130;2024-03-02T06:07:03;21.90;46.40
86268;DHT22;76928;48.002;8.130;2024-03-02T06:09:30;21.90;46.30
86268;DHT22;76928;48.002;8.130;2024-03-02T06:11:57;21.90;46.20
86268;DHT22;76928;48.002;8.130;2024-03-02T06:14:23;21.90;46.20
86268;DHT22;76928;48.002;8.130;2024-03-02T06:16:50;21.90;46.40
86268;DHT22;76928;48.002;8.130;2024-03-02T06:19:17;21.90;46.40
86268;DHT22;76928;48.002;8.130;2024-03-02T06:21:44;21.90;46.40
86268;DHT22;76928;48.002;8.130;2024-03-02T06:24:11;21.90;46.30
86268;DHT22;76928;48.002;8.130;2024-03-02T06:26:37;21.90;46.40
86268;DHT22;76928;48.002;8.130;2024-03-02T06:29:05;21.90;46.30
86268;DHT22;76928;48.002;8.130;2024-03-02T06:31:32;21.90;46.40
86268;DHT22;76928;48.002;8.130;2024-03-02T06:33:59;21.90;46.50
86268;DHT22;76928;48.002;8.130;2024-03-02T06:36:25;21.90;46.60
86268;DHT22;76928;48.002;8.130;2024-03-02T06:38:52;21.90;46.50
86268;DHT22;76928;48.002;8.130;2024-03-02T06:41:19;21.90;46.20
86268;DHT22;76928;48.002;8.130;2024-03-02T06:43:46;21.90;46.40
86268;DHT22;76928;48.002;8.130;2024-03-02T06:46:12;21.90;46.40
86268;DHT22;76928;48.002;8.130;2024-03-02T06:48:41;21.90;46.40
86268;DHT22;76928;48.002;8.130;2024-03-02T06:51:08;21.90;46.40
86268;DHT22;76928;48.002;8.130;2024-03-02T06:53:34;21.90;46.60
86268;DHT22;76928;48.002;8.130;2024-03-02T06:56:01;21.90;46.60
86268;DHT22;76928;48.002;8.130;2024-03-02T06:58:28;21.90;46.50
86268;DHT22;76928;48.002;8.130;2024-03-02T07:00:57;21.90;46.30
86268;DHT22;76928;48.002;8.130;2024-03-02T07:03:24;21.90;46.30
86268;DHT22;76928;48.002;8.130;2024-03-02T07:05:50;21.90;46.30
86268;DHT22;76928;48.002;8.130;2024-03-02T07:08:17;21.90;46.40
86268;DHT22;76928;48.002;8.130;2024-03-02T07:10:44;21.90;46.50
86268;DHT22;76928;48.002;8.130;2024-03-02T07:13:11;21.90;46.50
86268;DHT22;76928;48.002;8.130;2024-03-02T07:15:37;21.90;46.50
86268;DHT22;76928;48.002;8.130;2024-03-02T07:18:30;21.90;46.40
86268;DHT22;76928;48.002;8.130;2024-03-02T07:20:57;21.90;46.70
86268;DHT22;76928;48.002;8.130;2024-03-02T07:23:25;21.90;46.50
86268;DHT22;76928;48.002;8.130;2024-03-02T07:25:53;21.90;46.60
86268;DHT22;76928;48.002;8.130;2024-03-02T07:28:23;21.90;46.40
86268;DHT22;76928;48.002;8.130;2024-03-02T07:30:59;21.90;46.30
86268;DHT22;76928;48.002;8.130;2024-03-02T07:33:31;21.90;46.60
86268;DHT22;76928;48.002;8.130;2024-03-02T07:35:58;21.90;46.70
86268;DHT22;76928;48.002;8.130;2024-03-02T07:38:27;21.90;46.30
86268;DHT22;76928;48.002;8.130;2024-03-02T07:40:55;21.90;46.60
86268;DHT22;76928;48.002;8.130;2024-03-02T07:43:22;21.90;46.40
86268;DHT22;76928;48.002;8.130;2024-03-02T07:45:49;21.90;46.10
86268;DHT22;76928;48.002;8.130;2024-03-02T07:48:16;21.90;46.20
86268;DHT22;76928;48.002;8.130;2024-03-02T07:50:43;21.90;46.10
86268;DHT22;76928;48.002;8.130;2024-03-02T07:53:10;21.90;46.10
86268;DHT22;76928;48.002;8.130;2024-03-02T07:55:36;21.90;46.30
86268;DHT22;76928;48.002;8.130;2024-03-02T07:58:03;21.90;46.50
86268;DHT22;76928;48.002;8.130;2024-03-02T08:00:30;21.90;46.20
86268;DHT22;76928;48.002;8.130;2024-03-02T08:02:57;21.90;46.20
86268;DHT22;76928;48.002;8.130;2024-03-02T08:05:24;21.90;46.20
86268;DHT22;76928;48.002;8.130;2024-03-02T08:07:50;21.90;46.10
86268;DHT22;76928;48.002;8.130;2024-03-02T08:10:20;21.90;46.20
86268;DHT22;76928;48.002;8.130;2024-03-02T08:12:47;21.90;46.00
86268;DHT22;76928;48.002;8.130;2024-03-02T08:15:14;21.90;46.00
86268;DHT22;76928;48.002;8.130;2024-03-02T08:17:41;21.90;45.80
86268;DHT22;76928;48.002;8.130;2024-03-02T08:20:17;21.80;45.90
86268;DHT22;76928;48.002;8.130;2024-03-02T08:22:44;21.90;45.90
86268;DHT22;76928;48.002;8.130;2024-03-02T08:25:11;21.90;45.90
86268;DHT22;76928;48.002;8.130;2024-03-02T08:27:39;21.80;46.00
86268;DHT22;76928;48.002;8.130;2024-03-02T08:30:06;21.80;46.00
86268;DHT22;76928;48.002;8.130;2024-03-02T08:32:34;21.80;45.80
86268;DHT22;76928;48.002;8.130;2024-03-02T08:35:01;21.80;45.80
86268;DHT22;76928;48.002;8.130;2024-03-02T08:37:28;21.80;45.40
86268;DHT22;76928;48.002;8.130;2024-03-02T08:39:55;21.90;45.00
86268;DHT22;76928;48.002;8.130;2024-03-02T08:42:22;21.80;45.30
86268;DHT22;76928;48.002;8.130;2024-03-02T08:44:49;21.80;45.40
86268;DHT22;76928;48.002;8.130;2024-03-02T08:47:16;21.80;45.60
86268;DHT22;76928;48.002;8.130;2024-03-02T08:49:43;21.80;46.10
86268;DHT22;76928;48.002;8.130;2024-03-02T08:52:10;21.90;45.40
86268;DHT22;76928;48.002;8.130;2024-03-02T08:54:36;21.90;45.20
86268;DHT22;76928;48.002;8.130;2024-03-02T08:57:04;22.00;45.90
86268;DHT22;76928;48.002;8.130;2024-03-02T08:59:31;22.10;46.90
86268;DHT22;76928;48.002;8.130;2024-03-02T09:01:59;22.30;46.80
86268;DHT22;76928;48.002;8.130;2024-03-02T09:04:26;22.40;46.60
86268;DHT22;76928;48.002;8.130;2024-03-02T09:06:53;22.50;46.60
86268;DHT22;76928;48.002;8.130;2024-03-02T09:09:19;22.60;46.40
86268;DHT22;76928;48.002;8.130;2024-03-02T09:11:47;22.80;46.00
86268;DHT22;76928;48.002;8.130;2024-03-02T09:14:14;22.90;44.20
86268;DHT22;76928;48.002;8.130;2024-03-02T09:16:42;22.90;45.50
86268;DHT22;76928;48.002;8.130;2024-03-02T09:19:09;23.00;45.60
86268;DHT22;76928;48.002;8.130;2024-03-02T09:21:36;22.90;45.90
86268;DHT22;76928;48.002;8.130;2024-03-02T09:24:03;23.00;45.60
86268;DHT22;76928;48.002;8.130;2024-03-02T09:26:30;23.00;45.50
86268;DHT22;76928;48.002;8.130;2024-03-02T09:28:57;23.00;45.60
86268;DHT22;76928;48.002;8.130;2024-03-02T09:31:24;23.00;45.60
86268;DHT22;76928;48.002;8.130;2024-03-02T09:33:50;22.90;45.70
86268;DHT22;76928;48.002;8.130;2024-03-02T09:36:18;22.90;45.70
86268;DHT22;76928;48.002;8.130;2024-03-02T09:38:45;23.00;45.50
86268;DHT22;76928;48.002;8.130;2024-03-02T09:41:12;23.00;45.40
86268;DHT22;76928;48.002;8.130;2024-03-02T09:43:40;23.00;45.20
86268;DHT22;76928;48.002;8.130;2024-03-02T09:46:09;23.00;45.20
86268;DHT22;76928;48.002;8.130;2024-03-02T09:48:37;23.10;45.00
86268;DHT22;76928;48.002;8.130;2024-03-02T09:51:05;23.10;45.00
86268;DHT22;76928;48.002;8.130;2024-03-02T09:53:33;23.10;45.00
86268;DHT22;76928;48.002;8.130;2024-03-02T09:56:00;23.10;45.00
86268;DHT22;76928;48.002;8.130;2024-03-02T09:58:27;23.10;45.00
86268;DHT22;76928;48.002;8.130;2024-03-02T10:00:54;23.10;45.00
86268;DHT22;76928;48.002;8.130;2024-03-02T10:03:22;23.00;45.00
86268;DHT22;76928;48.002;8.130;2024-03-02T10:05:50;23.00;45.10
86268;DHT22;76928;48.002;8.130;2024-03-02T10:08:18;23.00;45.10
86268;DHT22;76928;48.002;8.130;2024-03-02T10:10:44;23.00;45.10
86268;DHT22;76928;48.002;8.130;2024-03-02T10:13:13;23.00;45.10
86268;DHT22;76928;48.002;8.130;2024-03-02T10:15:41;23.00;45.10
86268;DHT22;76928;48.002;8.130;2024-03-02T10:18:12;23.00;45.10
86268;DHT22;76928;48.002;8.130;2024-03-02T10:20:40;23.00;45.00
86268;DHT22;76928;48.002;8.130;2024-03-02T10:23:13;23.00;45.10
86268;DHT22;76928;48.002;8.130;2024-03-02T10:25:41;23.00;45.00
86268;DHT22;76928;48.002;8.130;2024-03-02T10:28:08;23.00;44.90
86268;DHT22;76928;48.002;8.130;2024-03-02T10:30:35;23.00;44.80
86268;DHT22;76928;48.002;8.130;2024-03-02T10:33:03;23.00;44.90
86268;DHT22;76928;48.002;8.130;2024-03-02T10:35:32;23.00;45.00
86268;DHT22;76928;48.002;8.130;2024-03-02T10:38:04;23.10;45.00
86268;DHT22;76928;48.002;8.130;2024-03-02T10:40:31;23.10;44.90
86268;DHT22;76928;48.002;8.130;2024-03-02T10:42:59;23.10;44.90
86268;DHT22;76928;48.002;8.130;2024-03-02T10:45:28;23.10;44.90
86268;DHT22;76928;48.002;8.130;2024-03-02T10:47:55;23.10;44.70
86268;DHT22;76928;48.002;8.130;2024-03-02T10:50:24;23.20;44.70
86268;DHT22;76928;48.002;8.130;2024-03-02T10:52:51;23.20;44.70
86268;DHT22;76928;48.002;8.130;2024-03-02T10:55:18;23.20;44.60
86268;DHT22;76928;48.002;8.130;2024-03-02T10:57:52;23.20;44.60
86268;DHT22;76928;48.002;8.130;2024-03-02T11:00:20;23.20;44.50
86268;DHT22;76928;48.002;8.130;2024-03-02T11:02:57;23.30;44.50
86268;DHT22;76928;48.002;8.130;2024-03-02T11:05:28;23.20;44.30
86268;DHT22;76928;48.002;8.130;2024-03-02T11:08:12;23.30;44.40
86268;DHT22;76928;48.002;8.130;2024-03-02T11:10:51;23.30;44.40
86268;DHT22;76928;48.002;8.130;2024-03-02T11:13:27;23.30;44.30
86268;DHT22;76928;48.002;8.130;2024-03-02T11:16:08;23.30;44.20
86268;DHT22;76928;48.002;8.130;2024-03-02T11:18:37;23.40;44.20
86268;DHT22;76928;48.002;8.130;2024-03-02T11:21:04;23.40;44.10
86268;DHT22;76928;48.002;8.130;2024-03-02T11:23:32;23.40;44.10
86268;DHT22;76928;48.002;8.130;2024-03-02T11:28:49;23.40;44.10
86268;DHT22;76928;48.002;8.130;2024-03-02T11:31:16;23.40;44.00
86268;DHT22;76928;48.002;8.130;2024-03-02T11:33:43;23.40;44.00
86268;DHT22;76928;48.002;8.130;2024-03-02T11:36:10;23.50;44.00
86268;DHT22;76928;48.002;8.130;2024-03-02T11:38:36;23.50;44.00
86268;DHT22;76928;48.002;8.130;2024-03-02T11:41:06;23.40;44.00
86268;DHT22;76928;48.002;8.130;2024-03-02T11:43:38;23.50;43.90
86268;DHT22;76928;48.002;8.130;2024-03-02T11:46:06;23.50;43.90
86268;DHT22;76928;48.002;8.130;2024-03-02T11:48:36;23.50;43.90
86268;DHT22;76928;48.002;8.130;2024-03-02T11:51:04;23.50;43.90
86268;DHT22;76928;48.002;8.130;2024-03-02T11:53:31;23.50;43.80
86268;DHT22;76928;48.002;8.130;2024-03-02T11:56:01;23.60;43.70
86268;DHT22;76928;48.002;8.130;2024-03-02T11:58:28;23.60;43.70
86268;DHT22;76928;48.002;8.130;2024-03-02T12:00:55;23.60;43.60
86268;DHT22;76928;48.002;8.130;2024-03-02T12:03:24;23.60;43.60
86268;DHT22;76928;48.002;8.130;2024-03-02T12:05:55;23.60;43.50
86268;DHT22;76928;48.002;8.130;2024-03-02T12:08:22;23.60;43.50
86268;DHT22;76928;48.002;8.130;2024-03-02T12:10:57;23.60;43.50
86268;DHT22;76928;48.002;8.130;2024-03-02T12:13:25;23.60;43.50
86268;DHT22;76928;48.002;8.130;2024-03-02T12:15:54;23.60;43.50
86268;DHT22;76928;48.002;8.130;2024-03-02T12:18:22;23.60;43.40
86268;DHT22;76928;48.002;8.130;2024-03-02T12:20:50;23.60;43.40
86268;DHT22;76928;48.002;8.130;2024-03-02T12:23:23;23.60;43.40
86268;DHT22;76928;48.002;8.130;2024-03-02T12:25:50;23.70;43.30
86268;DHT22;76928;48.002;8.130;2024-03-02T12:28:17;23.70;43.20
86268;DHT22;76928;48.002;8.130;2024-03-02T12:30:44;23.80;43.20
86268;DHT22;76928;48.002;8.130;2024-03-02T12:33:11;23.80;43.20
86268;DHT22;76928;48.002;8.130;2024-03-02T12:35:38;23.80;43.20
86268;DHT22;76928;48.002;8.130;2024-03-02T12:38:05;23.80;43.20
86268;DHT22;76928;48.002;8.130;2024-03-02T12:40:32;23.80;43.10
86268;DHT22;76928;48.002;8.130;2024-03-02T12:42:59;23.80;43.00
86268;DHT22;76928;48.002;8.130;2024-03-02T12:45:26;23.80;43.00
86268;DHT22;76928;48.002;8.130;2024-03-02T12:47:53;23.80;43.00
86268;DHT22;76928;48.002;8.130;2024-03-02T12:50:20;23.90;42.90
86268;DHT22;76928;48.002;8.130;2024-03-02T12:52:54;23.90;42.90
86268;DHT22;76928;48.002;8.130;2024-03-02T12:55:22;23.90;43.00
86268;DHT22;76928;48.002;8.130;2024-03-02T12:57:52;23.90;43.00
86268;DHT22;76928;48.002;8.130;2024-03-02T13:00:20;23.90;43.00
86268;DHT22;76928;48.002;8.130;2024-03-02T13:02:47;23.90;42.90
86268;DHT22;76928;48.002;8.130;2024-03-02T13:05:17;23.90;42.90
86268;DHT22;76928;48.002;8.130;2024-03-02T13:07:44;23.90;42.90
86268;DHT22;76928;48.002;8.130;2024-03-02T13:10:13;24.00;42.80
86268;DHT22;76928;48.002;8.130;2024-03-02T13:12:40;24.00;42.90
86268;DHT22;76928;48.002;8.130;2024-03-02T13:15:08;24.00;42.80
86268;DHT22;76928;48.002;8.130;2024-03-02T13:17:35;24.00;42.70
86268;DHT22;76928;48.002;8.130;2024-03-02T13:20:03;24.00;42.70
86268;DHT22;76928;48.002;8.130;2024-03-02T13:22:32;24.00;42.60
86268;DHT22;76928;48.002;8.130;2024-03-02T13:24:59;24.00;42.60
86268;DHT22;76928;48.002;8.130;2024-03-02T13:27:27;24.00;42.50
86268;DHT22;76928;48.002;8.130;2024-03-02T13:29:54;24.10;42.50
86268;DHT22;76928;48.002;8.130;2024-03-02T13:32:21;24.20;42.40
86268;DHT22;76928;48.002;8.130;2024-03-02T13:34:50;24.20;42.40
86268;DHT22;76928;48.002;8.130;2024-03-02T13:37:17;24.20;42.30
86268;DHT22;76928;48.002;8.130;2024-03-02T13:39:44;24.20;42.30
86268;DHT22;76928;48.002;8.130;2024-03-02T13:42:11;24.20;42.20
86268;DHT22;76928;48.002;8.130;2024-03-02T13:44:43;24.20;42.20
86268;DHT22;76928;48.002;8.130;2024-03-02T13:47:11;24.20;42.20
86268;DHT22;76928;48.002;8.130;2024-03-02T13:49:38;24.10;42.10
86268;DHT22;76928;48.002;8.130;2024-03-02T13:52:09;24.10;42.00
86268;DHT22;76928;48.002;8.130;2024-03-02T13:54:37;24.00;42.00
86268;DHT22;76928;48.002;8.130;2024-03-02T13:57:07;24.00;42.00
86268;DHT22;76928;48.002;8.130;2024-03-02T13:59:34;24.00;42.00
86268;DHT22;76928;48.002;8.130;2024-03-02T14:02:02;24.00;42.10
86268;DHT22;76928;48.002;8.130;2024-03-02T14:04:33;24.00;42.00
86268;DHT22;76928;48.002;8.130;2024-03-02T14:07:00;24.00;42.00
86268;DHT22;76928;48.002;8.130;2024-03-02T14:09:28;24.00;41.90
86268;DHT22;76928;48.002;8.130;2024-03-02T14:11:55;24.00;41.90
86268;DHT22;76928;48.002;8.130;2024-03-02T14:14:22;24.00;41.90
86268;DHT22;76928;48.002;8.130;2024-03-02T14:16:49;24.00;41.80
86268;DHT22;76928;48.002;8.130;2024-03-02T14:19:16;23.90;41.90
86268;DHT22;76928;48.002;8.130;2024-03-02T14:21:43;23.90;41.90
86268;DHT22;76928;48.002;8.130;2024-03-02T14:24:10;23.90;42.00
86268;DHT22;76928;48.002;8.130;2024-03-02T14:26:37;23.90;41.90
86268;DHT22;76928;48.002;8.130;2024-03-02T14:29:04;23.80;42.00
86268;DHT22;76928;48.002;8.130;2024-03-02T14:31:31;23.80;42.00
86268;DHT22;76928;48.002;8.130;2024-03-02T14:33:59;23.80;42.00
86268;DHT22;76928;48.002;8.130;2024-03-02T14:36:26;23.80;41.90
86268;DHT22;76928;48.002;8.130;2024-03-02T14:38:54;23.80;41.90
86268;DHT22;76928;48.002;8.130;2024-03-02T14:41:21;23.80;41.90
86268;DHT22;76928;48.002;8.130;2024-03-02T14:43:48;23.70;41.90
86268;DHT22;76928;48.002;8.130;2024-03-02T14:46:16;23.70;41.90
86268;DHT22;76928;48.002;8.130;2024-03-02T14:48:44;23.70;41.80
86268;DHT22;76928;48.002;8.130;2024-03-02T14:51:13;23.70;41.80
86268;DHT22;76928;48.002;8.130;2024-03-02T14:53:40;23.70;41.70
86268;DHT22;76928;48.002;8.130;2024-03-02T14:56:07;23.60;41.80
86268;DHT22;76928;48.002;8.130;2024-03-02T14:58:34;23.60;41.70
86268;DHT22;76928;48.002;8.130;2024-03-02T15:01:03;23.60;41.70
86268;DHT22;76928;48.002;8.130;2024-03-02T15:03:31;23.60;41.70
86268;DHT22;76928;48.002;8.130;2024-03-02T15:05:59;23.60;41.70
86268;DHT22;76928;48.002;8.130;2024-03-02T15:08:25;23.60;41.80
86268;DHT22;76928;48.002;8.130;2024-03-02T15:10:52;23.60;41.70
86268;DHT22;76928;48.002;8.130;2024-03-02T15:13:22;23.60;41.80
86268;DHT22;76928;48.002;8.130;2024-03-02T15:15:49;23.50;41.80
86268;DHT22;76928;48.002;8.130;2024-03-02T15:18:16;23.50;41.70
86268;DHT22;76928;48.002;8.130;2024-03-02T15:20:42;23.50;41.70
86268;DHT22;76928;48.002;8.130;2024-03-02T15:23:09;23.50;41.70
86268;DHT22;76928;48.002;8.130;2024-03-02T15:25:36;23.50;41.70
86268;DHT22;76928;48.002;8.130;2024-03-02T15:28:03;23.50;41.70
86268;DHT22;76928;48.002;8.130;2024-03-02T15:30:30;23.50;41.60
86268;DHT22;76928;48.002;8.130;2024-03-02T15:32:57;23.50;41.50
86268;DHT22;76928;48.002;8.130;2024-03-02T15:35:24;23.50;41.50
86268;DHT22;76928;48.002;8.130;2024-03-02T15:37:50;23.50;41.50
86268;DHT22;76928;48.002;8.130;2024-03-02T15:40:17;23.50;41.50
86268;DHT22;76928;48.002;8.130;2024-03-02T15:42:44;23.50;41.60